METAR Data
IDs: Format: Raw Decoded Include TAF

Data at: 1707 UTC 03 Dec 2021

KSXT 031656Z AUTO 12007KT 10SM CLR 11/04 A3016 RMK AO2 SLP198 T01110044
KSXT 031556Z AUTO 12008KT 10SM CLR 08/05 A3016 RMK AO2 SLP205 T00830050
KSXT 031456Z AUTO 14007KT 10SM CLR 09/04 A3016 RMK AO2 SLP202 T00890044 56004 $
KSXT 031356Z AUTO 13003KT 10SM CLR 09/04 A3016 RMK AO2 SLP206 T00890044 $
KSXT 031256Z AUTO 07003KT 10SM CLR 09/05 A3017 RMK AO2 SLP207 T00940050 $
KSXT 031156Z AUTO 31004KT 10SM CLR 08/03 A3018 RMK AO2 SLP211 7//// T00830033 10100 20072 58001 $
KSXT 031056Z AUTO 06004KT 10SM CLR 09/01 A3019 RMK AO2 SLP207 T00940006 $
KSXT 030956Z AUTO 06006KT 10SM CLR 08/04 A3019 RMK AO2 SLP208 T00830039 $
KSXT 030856Z AUTO 12006KT 10SM CLR 08/04 A3018 RMK AO2 SLP208 T00830039 58009 $
KSXT 030756Z AUTO 12007KT 10SM CLR 08/03 A3019 RMK AO2 SLP214 T00830033 401170061 $
KSXT 030656Z AUTO 13008KT 10SM CLR 08/03 A3020 RMK AO2 SLPNO T00780033 $
KSXT 030556Z AUTO 14006KT 10SM CLR 08/04 A3021 RMK AO2 SLPNO T00780039 10100 20067 50000 $
KSXT 030456Z AUTO 12005KT 10SM CLR 09/01 A3022 RMK AO2 SLP226 T00940011 $
KSXT 030356Z AUTO 16006KT 10SM CLR 08/05 A3021 RMK AO2 SLP227 T00830050 $
KSXT 030256Z AUTO 14006KT 10SM CLR 09/01 A3021 RMK AO2 SLP218 T00940011 53003 $
KSXT 030203Z AUTO 03007KT 10SM SCT001 08/M04 A3021 RMK AO2 T00831039 $
KSXT 030156Z AUTO 01006KT 2SM BR SCT001 07/05 A3021 RMK AO2 SLP223 T00720050 $
KSXT 030141Z AUTO 36007KT 1SM BR VV001 07/05 A3021 RMK AO2 T00720050 $
KSXT 030056Z AUTO 02008KT 10SM SCT001 08/M04 A3020 RMK AO2 SLP215 T00831039
KSXT 030049Z AUTO 01009KT 6SM BR SCT001 07/06 A3020 RMK AO2 T00720056
KSXT 022356Z AUTO 02006KT 10SM CLR 08/05 A3020 RMK AO2 SLP213 T00830050 55004
KSXT 022256Z AUTO 02005KT 10SM CLR 11/M02 A3020 RMK AO2 SLP210 T01061022
KSXT 022156Z AUTO 02004KT 10SM CLR 12/01 A3021 RMK AO2 SLP209 T01170006
KSXT 022056Z AUTO 03006KT 10SM CLR 11/M03 A3022 RMK AO2 SLP214 T01061033 58012
KSXT 021956Z AUTO 02008KT 350V060 10SM CLR 09/M02 A3023 RMK AO2 SLP220 T00941017
KSXT 021856Z AUTO 36008KT A3025 RMK AO2 SLPNO
KSXT 021756Z AUTO A3025 RMK AO2 SLPNO 6//// 10117 20061 52011 PWINO FZRANO PNO $
KSXT 021736Z AUTO A3025 RMK AO2 PWINO FZRANO PNO $
KSXT 021656Z AUTO 35007KT 1/4SM FG VV001 07/06 A3024 RMK AO2 SLP231 T00670056
KSXT 021649Z AUTO 35005KT 1/4SM FG VV001 07/06 A3024 RMK AO2 T00670056
KSXT 021645Z AUTO 35004KT 1 1/4SM BR SCT001 07/06 A3023 RMK AO2 T00720056
KSXT 021639Z AUTO 04004KT 10SM SCT001 08/06 A3023 RMK AO2 T00780056
KSXT 021632Z AUTO 03004KT 2 1/2SM BR SCT001 07/05 A3023 RMK AO2 T00720050
KSXT 021556Z AUTO 36008KT 1/4SM FG VV001 06/05 A3023 RMK AO2 SLP228 T00610050
KSXT 021539Z AUTO 35008KT 320V020 1/4SM FG VV001 07/06 A3023 RMK AO2 VIS M1/4V4 T00670056
KSXT 021456Z AUTO 35005KT 10SM CLR 09/06 A3022 RMK AO2 SLP217 T00890061 53002
KSXT 021356Z AUTO 36005KT 10SM CLR 09/06 A3021 RMK AO2 SLP209 T00940061
KSXT 021256Z AUTO 34004KT 10SM CLR 10/07 A3021 RMK AO2 SLP210 T01000067
KSXT 021156Z AUTO 00000KT 10SM CLR 12/07 A3021 RMK AO2 SLP208 T01170072 10117 20100 58002
KSXT 021056Z AUTO 17005KT 10SM CLR 11/07 A3022 RMK AO2 SLP209 T01060072
KSXT 020956Z AUTO 15005KT 10SM CLR 11/07 A3022 RMK AO2 SLP206 T01110072
KSXT 020856Z AUTO 03007KT 10SM CLR 12/07 A3022 RMK AO2 SLP204 T01170067 58003
KSXT 020756Z AUTO 36009KT 10SM CLR 11/06 A3023 RMK AO2 SLP208 T01110056 401720100
KSXT 020656Z AUTO 35008KT 10SM CLR 11/07 A3023 RMK AO2 SLP209 T01060067
KSXT 020556Z AUTO 36009KT 10SM CLR 11/08 A3023 RMK AO2 SLP209 T01060078 10139 20100 53006